OIBK

Kish International Airport

Kish Island, Iran
TAF OIBK 251110Z 2512/2618 31005MPS 6000 FEW035 TEMPO 2512/2515 31010MPS 3000 SA FEW030 BKN100 TEMPO 2607/2615 31010MPS 3000 SA FEW030 BKN100
Issued Valid From Valid To
Apr-25 @ 11:10 UTC
(7 hours ago)
Apr-25 @ 12:00 UTC
(6 hours ago)
Apr-26 @ 18:00 UTC
(in 24 hours)
Apr-25 @ 12:00 to Apr-26 @ 18:00
TAF OIBK 251110Z 2512/2618 31005MPS 6000 FEW035
Wind Visibility Clouds
310° at 10 knots 6,003 meters
  • Few at 3,500' AGL
Expired Click to View Apr-25 @ 12:00 to Apr-25 @ 15:00
TEMPO 2512/2515 31010MPS 3000 SA FEW030 BKN100
Wind Visibility Clouds Conditions
310° at 19 knots 2,993 meters
  • Few at 3,000' AGL
  • Broken at 10,000' AGL
  • Sand
Temporary Apr-26 @ 07:00 to Apr-26 @ 15:00
TEMPO 2607/2615 31010MPS 3000 SA FEW030 BKN100
Wind Visibility Clouds Conditions
310° at 19 knots 2,993 meters
  • Few at 3,000' AGL
  • Broken at 10,000' AGL
  • Sand
TAF OIBK 251110Z 2512/2618 31005MPS 6000 FEW035 TEMPO 2512/2515 31010MPS 3000 SA FEW030 BKN100 TEMPO 2607/2615 31010MPS 3000 SA FEW030 BKN100
Issued Apr-25 @ 11:10 UTC
(7 hours ago)
Valid From Apr-25 @ 12:00 UTC
(6 hours ago)
Valid To Apr-26 @ 18:00 UTC
(in 24 hours)
Apr-25 @ 12:00 - Apr-26 @ 18:00
Wind Visibility
310° at 10 knots 6,003 meters
Clouds
  • Few at 3,500' AGL
Apr-25 @ 12:00 - Apr-25 @ 15:00
Wind Visibility
310° at 19 knots 2,993 meters
Clouds
  • Few at 3,000' AGL
  • Broken at 10,000' AGL
Conditions
  • Sand
Temporary Apr-26 @ 07:00 - Apr-26 @ 15:00
Wind Visibility
310° at 19 knots 2,993 meters
Clouds
  • Few at 3,000' AGL
  • Broken at 10,000' AGL
Conditions
  • Sand